createdAt,value
2022-10-06T00:01:16.446Z,99162.06
2022-10-06T00:02:19.988Z,99164.41
2022-10-06T00:03:23.309Z,99160.94
2022-10-06T00:04:26.292Z,99158.19
2022-10-06T00:05:29.578Z,99162.81
2022-10-06T00:06:33.599Z,99164.25
2022-10-06T00:07:36.857Z,99155.63
2022-10-06T00:08:41.614Z,99167.34
2022-10-06T00:09:44.479Z,99157.25
2022-10-06T00:10:47.313Z,99152.88
2022-10-06T00:11:50.053Z,99157.09
2022-10-06T00:12:52.885Z,99159.66
2022-10-06T00:13:55.701Z,99159.66
2022-10-06T00:14:58.540Z,99166.44
2022-10-06T00:16:02.463Z,99167.72
2022-10-06T00:17:05.578Z,99157.31
2022-10-06T00:18:08.341Z,99160.78
2022-10-06T00:19:11.143Z,99160.16
2022-10-06T00:20:14.698Z,99157.94
2022-10-06T00:21:17.887Z,99162.69
2022-10-06T00:22:20.653Z,99157.94
2022-10-06T00:23:23.592Z,99160.69
2022-10-06T00:24:27.419Z,99154.66
2022-10-06T00:25:30.255Z,99155.37
2022-10-06T00:26:33.227Z,99157.19
2022-10-06T00:27:38.935Z,99159.06
2022-10-06T00:28:41.761Z,99158.34
2022-10-06T00:29:44.711Z,99153.41
2022-10-06T00:30:48.006Z,99158.34
2022-10-06T00:31:50.815Z,99160.91
2022-10-06T00:32:59.174Z,99153.94
2022-10-06T00:34:02.086Z,99154.34
2022-10-06T00:35:05.820Z,99155.81
2022-10-06T00:36:09.098Z,99154.34
2022-10-06T00:37:11.997Z,99153.25
2022-10-06T00:38:17.097Z,99150.34
2022-10-06T00:39:20.565Z,99153.63
2022-10-06T00:40:23.845Z,99151.47
2022-10-06T00:41:26.765Z,99156.03
2022-10-06T00:42:32.637Z,99156.22
2022-10-06T00:43:57.192Z,99156.22
2022-10-06T00:45:06.698Z,99153.13
2022-10-06T00:46:18.477Z,99152.78
2022-10-06T00:47:25.093Z,99152.97
2022-10-06T00:48:29.213Z,99152.97
2022-10-06T00:49:37.547Z,99152.09
2022-10-06T00:50:41.410Z,99156.66
2022-10-06T00:51:48.478Z,99151.00
2022-10-06T00:52:51.278Z,99148.63
2022-10-06T00:53:53.978Z,99155.59
2022-10-06T00:54:59.391Z,99149.91
2022-10-06T00:56:02.299Z,99145.69
2022-10-06T00:57:06.496Z,99151.56
2022-10-06T00:58:11.288Z,99148.63
2022-10-06T00:59:17.353Z,99152.66
2022-10-06T01:00:20.849Z,99148.31
2022-10-06T01:01:25.244Z,99145.38
2022-10-06T01:02:43.003Z,99148.84
2022-10-06T01:03:52.861Z,99150.13
2022-10-06T01:05:00.952Z,99153.59
2022-10-06T01:06:05.357Z,99160.75
2022-10-06T01:07:08.837Z,99153.44
2022-10-06T01:08:12.343Z,99150.53
2022-10-06T01:10:25.187Z,99155.09
2022-10-06T01:11:27.928Z,99145.41
2022-10-06T01:12:33.631Z,99149.94
2022-10-06T01:13:36.494Z,99142.47
2022-10-06T01:14:40.420Z,99149.94
2022-10-06T01:16:12.496Z,99139.91
2022-10-06T01:17:29.406Z,99152.56
2022-10-06T01:18:33.450Z,99148.72
2022-10-06T01:19:46.391Z,99149.81
2022-10-06T01:20:55.748Z,99149.09
2022-10-06T01:22:05.035Z,99148.19
2022-10-06T01:23:10.805Z,99148.56
2022-10-06T01:24:13.775Z,99159.19
2022-10-06T01:25:18.833Z,99155.53
2022-10-06T01:26:24.828Z,99158.66
2022-10-06T01:27:31.054Z,99150.81
2022-10-06T01:28:34.417Z,99151.16
2022-10-06T01:29:38.170Z,99153.00
2022-10-06T01:30:52.225Z,99153.94
2022-10-06T01:31:55.470Z,99155.03
2022-10-06T01:32:58.589Z,99156.88
2022-10-06T01:34:01.385Z,99154.50
2022-10-06T01:35:05.273Z,99160.16
2022-10-06T01:36:08.198Z,99162.53
2022-10-06T01:37:11.081Z,99165.66
2022-10-06T01:38:14.069Z,99156.50
2022-10-06T01:39:16.911Z,99158.88
2022-10-06T01:40:19.918Z,99157.97
2022-10-06T01:41:22.840Z,99163.09
2022-10-06T01:42:26.039Z,99158.72
2022-10-06T01:43:28.824Z,99158.50
2022-10-06T01:44:31.661Z,99163.09
2022-10-06T01:45:34.415Z,99164.19
2022-10-06T01:46:37.316Z,99157.06
2022-10-06T01:47:40.114Z,99165.66
2022-10-06T01:48:42.974Z,99162.72
2022-10-06T01:49:45.740Z,99166.00
2022-10-06T01:50:48.597Z,99164.53
2022-10-06T01:51:51.384Z,99163.09
2022-10-06T01:52:56.738Z,99158.88
2022-10-06T01:53:59.706Z,99161.63
2022-10-06T01:55:02.915Z,99163.63
2022-10-06T01:56:06.114Z,99160.91
2022-10-06T01:57:09.154Z,99159.97
2022-10-06T01:58:12.625Z,99166.19
2022-10-06T01:59:15.377Z,99167.47
2022-10-06T02:00:18.628Z,99166.56
2022-10-06T02:01:21.614Z,99160.13
2022-10-06T02:02:24.474Z,99154.66
2022-10-06T02:03:27.264Z,99158.69
2022-10-06T02:04:30.240Z,99157.94
2022-10-06T02:05:33.340Z,99161.25
2022-10-06T02:06:36.283Z,99156.31
2022-10-06T02:07:39.574Z,99158.12
2022-10-06T02:08:42.534Z,99154.66
2022-10-06T02:09:45.379Z,99164.16
2022-10-06T02:10:48.172Z,99166.53
2022-10-06T02:11:51.229Z,99161.59
2022-10-06T02:12:54.569Z,99163.59
2022-10-06T02:13:57.355Z,99161.59
2022-10-06T02:15:00.072Z,99167.63
2022-10-06T02:16:02.914Z,99168.16
2022-10-06T02:17:06.841Z,99168.16
2022-10-06T02:18:09.829Z,99165.97
2022-10-06T02:19:12.801Z,99168.16
2022-10-06T02:20:16.166Z,99164.69
2022-10-06T02:21:21.335Z,99169.44
2022-10-06T02:22:24.161Z,99167.41
2022-10-06T02:23:27.468Z,99169.44
2022-10-06T02:24:30.462Z,99168.88
2022-10-06T02:25:33.301Z,99179.31
2022-10-06T02:26:36.156Z,99169.81
2022-10-06T02:27:39.820Z,99167.06
2022-10-06T02:28:44.448Z,99164.13
2022-10-06T02:29:49.387Z,99169.44
2022-10-06T02:30:52.396Z,99168.69
2022-10-06T02:31:55.986Z,99169.97
2022-10-06T02:32:58.731Z,99169.97
2022-10-06T02:34:02.533Z,99179.50
2022-10-06T02:35:06.829Z,99169.97
2022-10-06T02:36:14.703Z,99170.50
2022-10-06T02:37:17.594Z,99172.72
2022-10-06T02:38:20.381Z,99171.44
2022-10-06T02:40:31.333Z,99169.97
2022-10-06T02:41:34.261Z,99170.72
2022-10-06T02:42:41.748Z,99159.75
2022-10-06T02:43:44.772Z,99167.97
2022-10-06T02:44:47.573Z,99163.78
2022-10-06T02:45:58.584Z,99161.56
2022-10-06T02:47:01.473Z,99163.56
2022-10-06T02:48:04.559Z,99160.66
2022-10-06T02:49:07.429Z,99167.41
2022-10-06T02:50:10.657Z,99171.44
2022-10-06T02:51:15.936Z,99167.75
2022-10-06T02:52:18.755Z,99168.50
2022-10-06T02:53:21.544Z,99169.03
2022-10-06T02:54:24.241Z,99158.09
2022-10-06T02:55:27.208Z,99164.13
2022-10-06T02:56:29.973Z,99159.38
2022-10-06T02:57:32.825Z,99168.09
2022-10-06T02:58:35.738Z,99168.09
2022-10-06T02:59:38.866Z,99170.13
2022-10-06T03:00:41.669Z,99166.66
2022-10-06T03:01:44.584Z,99172.84
2022-10-06T03:02:47.576Z,99166.84
2022-10-06T03:03:50.614Z,99166.31
2022-10-06T03:04:53.347Z,99163.00
2022-10-06T03:06:01.083Z,99165.19
2022-10-06T03:07:04.228Z,99166.69
2022-10-06T03:08:06.973Z,99163.22
2022-10-06T03:09:10.529Z,99156.25
2022-10-06T03:10:13.337Z,99169.22
2022-10-06T03:11:16.699Z,99165.56
2022-10-06T03:12:19.428Z,99166.84
2022-10-06T03:13:22.213Z,99170.31
2022-10-06T03:14:25.063Z,99167.59
2022-10-06T03:15:28.630Z,99168.09
2022-10-06T03:16:39.241Z,99168.66
2022-10-06T03:17:42.007Z,99167.94
2022-10-06T03:18:50.239Z,99171.41
2022-10-06T03:19:53.017Z,99171.94
2022-10-06T03:21:00.850Z,99180.91
2022-10-06T03:22:04.779Z,99165.75
2022-10-06T03:23:12.725Z,99174.69
2022-10-06T03:24:16.700Z,99171.22
2022-10-06T03:25:19.413Z,99172.50
2022-10-06T03:26:27.314Z,99174.50
2022-10-06T03:27:30.045Z,99184.19
2022-10-06T03:28:33.726Z,99175.75
2022-10-06T03:29:36.736Z,99181.97
2022-10-06T03:30:39.500Z,99172.84
2022-10-06T03:31:43.594Z,99180.34
2022-10-06T03:32:46.533Z,99174.31
2022-10-06T03:33:49.507Z,99183.06
2022-10-06T03:34:53.543Z,99185.25
2022-10-06T03:36:01.095Z,99185.63
2022-10-06T03:37:04.072Z,99179.41
2022-10-06T03:38:09.968Z,99177.94
2022-10-06T03:39:13.768Z,99183.41
2022-10-06T03:40:16.563Z,99176.47
2022-10-06T03:41:25.305Z,99173.56
2022-10-06T03:42:28.044Z,99177.03
2022-10-06T03:43:30.887Z,99174.84
2022-10-06T03:44:35.262Z,99174.09
2022-10-06T03:45:38.135Z,99181.56
2022-10-06T03:46:41.203Z,99179.56
2022-10-06T03:47:43.925Z,99174.84
2022-10-06T03:48:48.377Z,99174.09
2022-10-06T03:49:51.105Z,99175.38
2022-10-06T03:50:58.116Z,99173.16
2022-10-06T03:52:00.878Z,99171.16
2022-10-06T03:53:03.750Z,99167.69
2022-10-06T03:54:10.951Z,99177.19
2022-10-06T03:55:13.771Z,99173.16
2022-10-06T03:56:18.694Z,99178.66
2022-10-06T03:57:21.543Z,99171.72
2022-10-06T03:58:24.335Z,99173.16
2022-10-06T03:59:29.457Z,99182.66
2022-10-06T04:00:32.287Z,99171.72
2022-10-06T04:01:40.642Z,99175.72
2022-10-06T04:02:43.396Z,99176.25
2022-10-06T04:03:46.186Z,99186.47
2022-10-06T04:04:48.919Z,99178.25
2022-10-06T04:05:56.542Z,99183.00
2022-10-06T04:06:59.332Z,99185.41
2022-10-06T04:08:02.504Z,99179.94
2022-10-06T04:09:12.561Z,99185.59
2022-10-06T04:10:17.650Z,99178.81
2022-10-06T04:11:29.299Z,99174.84
2022-10-06T04:12:31.889Z,99178.31
2022-10-06T04:13:34.699Z,99185.03
2022-10-06T04:14:37.524Z,99174.62
2022-10-06T04:15:40.336Z,99183.94
2022-10-06T04:16:45.968Z,99187.94
2022-10-06T04:17:48.818Z,99187.75
2022-10-06T04:18:54.325Z,99186.28
2022-10-06T04:19:57.143Z,99190.31
2022-10-06T04:21:00.626Z,99181.38
2022-10-06T04:22:03.478Z,99191.59
2022-10-06T04:23:06.763Z,99192.84
2022-10-06T04:24:13.805Z,99184.84
2022-10-06T04:25:19.644Z,99190.31
2022-10-06T04:26:24.756Z,99183.38
2022-10-06T04:27:27.694Z,99187.38
2022-10-06T04:28:31.012Z,99187.19
2022-10-06T04:29:33.977Z,99182.25
2022-10-06T04:30:36.750Z,99185.53
2022-10-06T04:31:41.276Z,99190.25
2022-10-06T04:32:46.002Z,99184.06
2022-10-06T04:33:52.169Z,99191.53
2022-10-06T04:34:55.079Z,99190.25
2022-10-06T04:36:03.275Z,99185.34
2022-10-06T04:37:06.227Z,99192.28
2022-10-06T04:38:09.672Z,99186.59
2022-10-06T04:39:13.248Z,99182.38
2022-10-06T04:40:16.514Z,99184.41
2022-10-06T04:41:20.517Z,99185.47
2022-10-06T04:42:23.604Z,99191.66
2022-10-06T04:43:28.184Z,99184.00
2022-10-06T04:44:31.078Z,99183.28
2022-10-06T04:45:33.760Z,99183.28
2022-10-06T04:46:44.914Z,99181.81
2022-10-06T04:47:50.363Z,99184.56
2022-10-06T04:48:54.840Z,99182.72
2022-10-06T04:49:57.553Z,99184.91
2022-10-06T04:51:03.895Z,99181.44
2022-10-06T04:52:06.642Z,99175.78
2022-10-06T04:53:09.494Z,99182.00
2022-10-06T04:54:12.528Z,99183.63
2022-10-06T04:55:15.339Z,99176.91
2022-10-06T04:56:33.770Z,99178.37
2022-10-06T04:57:36.539Z,99178.59
2022-10-06T04:58:42.123Z,99175.25
2022-10-06T05:00:08.887Z,99179.59
2022-10-06T05:01:20.853Z,99186.34
2022-10-06T05:02:23.729Z,99184.56
2022-10-06T05:03:29.249Z,99181.81
2022-10-06T05:04:31.985Z,99180.31
2022-10-06T05:05:35.774Z,99181.59
2022-10-06T05:06:41.441Z,99173.94
2022-10-06T05:07:45.616Z,99179.97
2022-10-06T05:09:02.864Z,99178.47
2022-10-06T05:10:06.225Z,99181.44
2022-10-06T05:11:15.139Z,99178.13
2022-10-06T05:12:19.642Z,99181.59
2022-10-06T05:13:22.371Z,99180.88
2022-10-06T05:14:25.161Z,99183.28
2022-10-06T05:15:28.451Z,99184.91
2022-10-06T05:16:32.042Z,99182.38
2022-10-06T05:17:34.788Z,99179.66
2022-10-06T05:18:38.801Z,99181.12
2022-10-06T05:19:41.494Z,99183.84
2022-10-06T05:20:44.263Z,99180.03
2022-10-06T05:21:47.016Z,99185.53
2022-10-06T05:22:49.987Z,99178.78
2022-10-06T05:23:53.235Z,99184.44
2022-10-06T05:24:55.913Z,99189.94
2022-10-06T05:25:59.069Z,99184.78
2022-10-06T05:27:04.032Z,99183.00
2022-10-06T05:28:06.824Z,99186.63
2022-10-06T05:29:15.629Z,99189.03
2022-10-06T05:30:19.811Z,99187.22
2022-10-06T05:31:24.625Z,99191.94
2022-10-06T05:32:27.577Z,99193.97
2022-10-06T05:33:32.437Z,99192.50
2022-10-06T05:34:35.244Z,99192.84
2022-10-06T05:35:38.003Z,99193.56
2022-10-06T05:36:40.994Z,99191.38
2022-10-06T05:37:44.001Z,99188.09
2022-10-06T05:38:47.841Z,99193.06
2022-10-06T05:39:50.698Z,99190.50
2022-10-06T05:41:13.688Z,99187.94
2022-10-06T05:42:16.577Z,99188.16
2022-10-06T05:43:19.341Z,99188.53
2022-10-06T05:44:22.206Z,99189.25
2022-10-06T05:45:24.989Z,99188.16
2022-10-06T05:46:30.029Z,99195.09
2022-10-06T05:47:32.841Z,99186.34
2022-10-06T05:48:35.626Z,99187.81
2022-10-06T05:49:38.452Z,99192.75
2022-10-06T05:50:41.134Z,99200.63
2022-10-06T05:51:44.038Z,99194.25
2022-10-06T05:52:47.001Z,99203.19
2022-10-06T05:53:50.056Z,99198.06
2022-10-06T05:54:52.896Z,99201.75
2022-10-06T05:56:09.869Z,99197.72
2022-10-06T05:57:12.977Z,99197.19
2022-10-06T05:58:18.470Z,99195.03
2022-10-06T05:59:21.497Z,99198.13
2022-10-06T06:00:24.292Z,99201.81
2022-10-06T06:01:32.389Z,99195.22
2022-10-06T06:02:35.302Z,99199.63
2022-10-06T06:03:39.897Z,99198.34
2022-10-06T06:04:42.861Z,99202.53
2022-10-06T06:05:46.141Z,99208.41
2022-10-06T06:06:49.037Z,99210.59
2022-10-06T06:07:51.989Z,99203.28
2022-10-06T06:09:08.958Z,99211.88
2022-10-06T06:10:11.818Z,99208.06
2022-10-06T06:11:15.077Z,99206.22
2022-10-06T06:12:17.924Z,99212.06
2022-10-06T06:13:24.189Z,99209.34
2022-10-06T06:14:45.721Z,99211.56
2022-10-06T06:16:00.786Z,99211.72
2022-10-06T06:17:03.632Z,99219.41
2022-10-06T06:18:06.638Z,99223.78
2022-10-06T06:19:11.412Z,99215.75
2022-10-06T06:20:14.229Z,99223.63
2022-10-06T06:21:17.169Z,99232.75
2022-10-06T06:22:21.333Z,99228.94
2022-10-06T06:23:25.077Z,99231.84
2022-10-06T06:24:27.817Z,99240.28
2022-10-06T06:25:30.557Z,99239.72
2022-10-06T06:26:39.571Z,99242.09
2022-10-06T06:27:42.477Z,99239.19
2022-10-06T06:28:46.698Z,99238.81
2022-10-06T06:29:50.247Z,99240.25
2022-10-06T06:31:20.346Z,99253.44
2022-10-06T06:32:23.467Z,99244.66
2022-10-06T06:33:26.207Z,99252.34
2022-10-06T06:34:29.378Z,99261.28
2022-10-06T06:35:32.167Z,99254.00
2022-10-06T06:36:41.284Z,99254.91
2022-10-06T06:37:45.275Z,99261.84
2022-10-06T06:40:58.880Z,99254.19
2022-10-06T06:42:02.824Z,99259.84
2022-10-06T06:43:06.177Z,99267.53
2022-10-06T06:44:11.721Z,99264.25
2022-10-06T06:45:14.990Z,99260.94
2022-10-06T06:46:20.383Z,99263.13
2022-10-06T06:47:25.925Z,99257.09
2022-10-06T06:48:30.568Z,99266.97
2022-10-06T06:49:33.658Z,99259.63
2022-10-06T06:50:37.749Z,99262.59
2022-10-06T06:51:43.258Z,99255.97
2022-10-06T06:52:46.561Z,99271.34
2022-10-06T06:53:50.139Z,99262.37
2022-10-06T06:54:52.909Z,99268.78
2022-10-06T06:55:55.858Z,99263.50
2022-10-06T06:56:59.096Z,99272.78
2022-10-06T06:58:02.099Z,99273.00
2022-10-06T06:59:10.777Z,99267.13
2022-10-06T07:00:14.296Z,99268.22
2022-10-06T07:01:24.871Z,99270.63
2022-10-06T07:02:30.106Z,99268.41
2022-10-06T07:03:55.949Z,99277.72
2022-10-06T07:04:55.778Z,99274.59
2022-10-06T07:06:10.250Z,99277.91
2022-10-06T07:07:13.059Z,99283.56
2022-10-06T07:08:20.698Z,99288.12
2022-10-06T07:09:23.769Z,99293.22
2022-10-06T07:10:28.317Z,99291.03
2022-10-06T07:11:34.410Z,99296.34
2022-10-06T07:12:37.338Z,99291.34
2022-10-06T07:13:40.778Z,99295.91
2022-10-06T07:15:03.586Z,99297.53
2022-10-06T07:18:15.756Z,99303.00
2022-10-06T07:19:39.628Z,99297.06
2022-10-06T07:21:00.826Z,99300.34
2022-10-06T07:22:27.086Z,99307.28
2022-10-06T07:23:48.206Z,99308.50
2022-10-06T07:25:11.778Z,99310.47
2022-10-06T07:26:14.546Z,99310.97
2022-10-06T07:27:17.256Z,99307.63
2022-10-06T07:28:20.060Z,99310.31
2022-10-06T07:29:22.778Z,99316.53
2022-10-06T07:30:28.686Z,99309.53
2022-10-06T07:31:33.703Z,99310.19
2022-10-06T07:32:37.949Z,99303.72
2022-10-06T07:33:41.106Z,99305.13
2022-10-06T07:35:53.855Z,99299.87
2022-10-06T07:36:59.667Z,99307.91
2022-10-06T07:38:08.116Z,99298.69
2022-10-06T07:39:10.825Z,99308.88
2022-10-06T07:40:15.016Z,99303.88
2022-10-06T07:41:20.044Z,99305.66
2022-10-06T07:42:23.774Z,99305.75
2022-10-06T07:43:26.365Z,99303.06
2022-10-06T07:44:29.056Z,99310.53
2022-10-06T07:45:46.579Z,99310.84
2022-10-06T07:46:49.166Z,99308.41
2022-10-06T07:47:58.846Z,99313.66
2022-10-06T07:49:01.465Z,99312.88
2022-10-06T07:50:06.969Z,99306.66
2022-10-06T07:51:28.566Z,99315.16
2022-10-06T07:52:31.342Z,99314.13
2022-10-06T07:53:35.775Z,99316.38
2022-10-06T07:54:38.396Z,99319.16
2022-10-06T07:55:44.746Z,99318.59
2022-10-06T07:56:47.377Z,99313.53
2022-10-06T07:57:51.446Z,99325.19
2022-10-06T07:58:54.175Z,99319.56
2022-10-06T08:00:02.086Z,99320.34
2022-10-06T08:01:08.466Z,99319.22
2022-10-06T08:02:11.154Z,99316.63
2022-10-06T08:03:18.365Z,99323.50
2022-10-06T08:04:26.128Z,99321.19
2022-10-06T08:05:33.357Z,99324.09
2022-10-06T08:06:36.268Z,99322.94
2022-10-06T08:07:38.853Z,99331.72
2022-10-06T08:08:42.937Z,99329.56
2022-10-06T08:09:45.485Z,99332.03
2022-10-06T08:11:01.583Z,99328.25
2022-10-06T08:12:24.616Z,99327.97
2022-10-06T08:13:29.333Z,99328.69
2022-10-06T08:14:31.936Z,99328.41
2022-10-06T08:15:34.825Z,99327.50
2022-10-06T08:16:37.635Z,99325.19
2022-10-06T08:17:41.766Z,99328.22
2022-10-06T08:18:52.765Z,99326.91
2022-10-06T08:19:55.425Z,99332.88
2022-10-06T08:20:58.903Z,99326.91
2022-10-06T08:22:04.859Z,99326.03
2022-10-06T08:23:09.065Z,99330.97
2022-10-06T08:24:11.635Z,99329.94
2022-10-06T08:25:20.629Z,99330.09
2022-10-06T08:26:25.349Z,99324.81
2022-10-06T08:27:29.255Z,99327.88
2022-10-06T08:28:33.010Z,99333.56
2022-10-06T08:29:36.285Z,99330.34
2022-10-06T08:30:39.915Z,99331.06
2022-10-06T08:31:42.517Z,99327.69
2022-10-06T08:32:47.691Z,99334.97
2022-10-06T08:33:56.266Z,99344.00
2022-10-06T08:34:59.103Z,99330.22
2022-10-06T08:36:08.827Z,99339.34
2022-10-06T08:37:19.974Z,99336.31
2022-10-06T08:38:23.215Z,99334.50
2022-10-06T08:39:25.815Z,99330.69
2022-10-06T08:40:29.574Z,99332.25
2022-10-06T08:41:51.250Z,99333.75
2022-10-06T08:42:58.385Z,99336.47
2022-10-06T08:44:05.765Z,99333.56
2022-10-06T08:45:14.846Z,99344.41
2022-10-06T08:46:21.109Z,99338.19
2022-10-06T08:47:33.784Z,99340.69
2022-10-06T08:48:38.938Z,99340.22
2022-10-06T08:49:44.925Z,99348.56
2022-10-06T08:50:50.341Z,99340.19
2022-10-06T08:52:08.873Z,99348.94
2022-10-06T08:53:21.936Z,99342.72
2022-10-06T08:54:51.986Z,99346.81
2022-10-06T08:56:05.247Z,99347.06
2022-10-06T08:57:22.586Z,99337.66
2022-10-06T08:58:52.165Z,99346.25
2022-10-06T08:59:55.107Z,99340.50
2022-10-06T09:01:16.841Z,99337.84
2022-10-06T09:02:25.987Z,99334.12
2022-10-06T09:03:30.256Z,99342.47
2022-10-06T09:04:34.430Z,99338.84
2022-10-06T09:05:38.105Z,99337.28
2022-10-06T09:06:52.210Z,99336.19
2022-10-06T09:08:11.105Z,99336.59
2022-10-06T09:09:41.976Z,99333.94
2022-10-06T09:10:59.615Z,99332.59
2022-10-06T09:12:07.027Z,99334.19
2022-10-06T09:13:22.097Z,99333.09
2022-10-06T09:14:37.707Z,99336.09
2022-10-06T09:16:10.071Z,99332.22
2022-10-06T09:17:19.176Z,99340.34
2022-10-06T09:18:49.858Z,99337.91
2022-10-06T09:20:05.598Z,99344.31
2022-10-06T09:21:17.366Z,99338.13
2022-10-06T09:22:21.187Z,99349.22
2022-10-06T09:23:44.117Z,99342.66
2022-10-06T09:24:50.614Z,99343.28
2022-10-06T09:25:57.926Z,99350.09
2022-10-06T09:27:12.965Z,99346.66
2022-10-06T09:28:16.822Z,99350.28
2022-10-06T09:29:19.756Z,99339.63
2022-10-06T09:30:22.994Z,99343.13
2022-10-06T09:31:40.473Z,99346.72
2022-10-06T09:33:00.245Z,99340.84
2022-10-06T09:34:12.767Z,99343.31
2022-10-06T09:35:21.897Z,99347.44
2022-10-06T09:36:24.746Z,99351.22
2022-10-06T09:37:27.925Z,99348.66
2022-10-06T09:38:49.046Z,99349.50
2022-10-06T09:39:53.513Z,99355.06
2022-10-06T09:40:56.515Z,99347.66
2022-10-06T09:42:03.735Z,99350.66
2022-10-06T09:43:19.336Z,99347.19
2022-10-06T09:44:25.224Z,99357.75
2022-10-06T09:45:29.391Z,99355.94
2022-10-06T09:46:41.938Z,99350.34
2022-10-06T09:47:45.905Z,99351.81
2022-10-06T09:48:48.826Z,99356.06
2022-10-06T09:50:28.177Z,99354.75
2022-10-06T09:51:34.135Z,99356.28
2022-10-06T09:52:36.938Z,99352.66
2022-10-06T09:53:39.997Z,99360.56
2022-10-06T09:54:43.946Z,99355.00
2022-10-06T09:55:55.417Z,99363.19
2022-10-06T09:56:59.545Z,99362.41
2022-10-06T09:58:03.112Z,99355.34
2022-10-06T09:59:18.725Z,99364.97
2022-10-06T10:00:36.133Z,99357.03
2022-10-06T10:01:38.908Z,99361.72
2022-10-06T10:02:42.173Z,99366.50
2022-10-06T10:04:15.611Z,99362.69
2022-10-06T10:05:22.651Z,99362.09
2022-10-06T10:06:30.543Z,99359.38
2022-10-06T10:07:35.270Z,99351.53
2022-10-06T10:08:38.088Z,99356.78
2022-10-06T10:09:44.015Z,99354.03
2022-10-06T10:10:46.667Z,99357.34
2022-10-06T10:12:24.704Z,99358.78
2022-10-06T10:13:29.585Z,99354.03
2022-10-06T10:14:38.907Z,99348.16
2022-10-06T10:15:52.578Z,99341.94
2022-10-06T10:16:55.336Z,99348.66
2022-10-06T10:18:01.475Z,99349.69
2022-10-06T10:19:07.058Z,99355.47
2022-10-06T10:20:29.899Z,99352.28
2022-10-06T10:21:35.285Z,99352.38
2022-10-06T10:22:41.094Z,99349.59
2022-10-06T10:23:57.425Z,99354.75
2022-10-06T10:25:07.238Z,99350.31
2022-10-06T10:26:29.177Z,99344.84
2022-10-06T10:27:45.665Z,99356.50
2022-10-06T10:29:15.292Z,99351.22
2022-10-06T10:30:18.726Z,99358.84
2022-10-06T10:31:32.538Z,99350.41
2022-10-06T10:33:18.905Z,99351.84
2022-10-06T10:34:33.806Z,99357.59
2022-10-06T10:35:41.887Z,99350.53
2022-10-06T10:36:52.505Z,99347.47
2022-10-06T10:37:55.166Z,99344.91
2022-10-06T10:38:58.915Z,99350.12
2022-10-06T10:40:43.324Z,99344.44
2022-10-06T10:41:51.135Z,99349.22
2022-10-06T10:43:12.557Z,99341.31
2022-10-06T10:44:36.106Z,99335.22
2022-10-06T10:45:48.786Z,99341.81
2022-10-06T10:47:01.665Z,99352.69
2022-10-06T10:48:15.785Z,99351.53
2022-10-06T10:49:28.545Z,99354.94
2022-10-06T10:50:39.546Z,99347.81
2022-10-06T10:51:50.515Z,99349.91
2022-10-06T10:52:59.906Z,99347.22
2022-10-06T10:54:17.085Z,99349.38
2022-10-06T10:55:28.826Z,99355.59
2022-10-06T10:56:33.807Z,99348.22
2022-10-06T10:57:41.585Z,99353.00
2022-10-06T10:58:47.016Z,99359.59
2022-10-06T10:59:55.685Z,99355.56
2022-10-06T11:01:25.780Z,99353.50
2022-10-06T11:02:28.940Z,99352.97
2022-10-06T11:03:31.765Z,99352.06
2022-10-06T11:04:37.855Z,99351.94
2022-10-06T11:05:43.715Z,99354.22
2022-10-06T11:06:54.474Z,99348.75
2022-10-06T11:08:38.597Z,99348.88
2022-10-06T11:09:49.528Z,99348.16
2022-10-06T11:10:58.979Z,99337.59
2022-10-06T11:12:40.485Z,99346.50
2022-10-06T11:13:47.205Z,99345.34
2022-10-06T11:15:01.670Z,99346.19
2022-10-06T11:16:23.051Z,99347.91
2022-10-06T11:17:45.505Z,99339.88
2022-10-06T11:19:08.976Z,99339.38
2022-10-06T11:20:23.368Z,99344.03
2022-10-06T11:21:31.856Z,99342.66
2022-10-06T11:22:53.077Z,99351.84
2022-10-06T11:24:25.416Z,99340.28
2022-10-06T11:25:41.090Z,99340.78
2022-10-06T11:27:08.455Z,99345.03
2022-10-06T11:28:29.175Z,99340.59
2022-10-06T11:29:35.785Z,99339.78
2022-10-06T11:31:01.276Z,99339.44
2022-10-06T11:32:28.357Z,99335.12
2022-10-06T11:33:34.006Z,99334.38
2022-10-06T11:34:36.846Z,99338.72
2022-10-06T11:35:43.376Z,99332.72
2022-10-06T11:37:32.877Z,99327.03
2022-10-06T11:38:41.987Z,99338.50
2022-10-06T11:39:57.182Z,99328.91
2022-10-06T11:41:38.977Z,99330.97
2022-10-06T11:42:50.725Z,99321.56
2022-10-06T11:44:17.745Z,99318.78
2022-10-06T11:45:29.758Z,99317.75
2022-10-06T11:46:49.536Z,99321.56
2022-10-06T11:48:07.145Z,99315.47
2022-10-06T11:49:28.509Z,99317.44
2022-10-06T11:50:42.476Z,99321.66
2022-10-06T11:51:45.207Z,99321.56
2022-10-06T11:52:47.867Z,99316.00
2022-10-06T11:53:53.309Z,99318.06
2022-10-06T11:55:17.209Z,99330.47
2022-10-06T11:56:19.788Z,99323.44
2022-10-06T11:57:25.013Z,99336.34
2022-10-06T11:58:51.208Z,99334.69
2022-10-06T12:00:14.686Z,99324.69
2022-10-06T12:01:35.332Z,99327.69
2022-10-06T12:02:40.571Z,99323.44
2022-10-06T12:03:48.654Z,99318.69
2022-10-06T12:05:23.152Z,99324.47
2022-10-06T12:06:44.304Z,99325.09
2022-10-06T12:07:52.599Z,99319.59
2022-10-06T12:08:55.298Z,99326.97
2022-10-06T12:10:30.176Z,99323.97
2022-10-06T12:11:43.166Z,99322.94
2022-10-06T12:13:06.272Z,99319.50
2022-10-06T12:17:55.064Z,99312.59
2022-10-06T12:19:26.369Z,99313.09
2022-10-06T12:20:48.161Z,99316.41
2022-10-06T12:21:54.620Z,99315.97
2022-10-06T12:23:43.683Z,99314.75
2022-10-06T12:25:02.439Z,99314.00
2022-10-06T12:26:14.467Z,99307.81
2022-10-06T12:27:29.949Z,99310.56
2022-10-06T12:28:49.940Z,99312.28
2022-10-06T12:30:17.071Z,99309.69
2022-10-06T12:31:39.982Z,99308.53
2022-10-06T12:32:49.325Z,99305.84
2022-10-06T12:33:52.777Z,99306.13
2022-10-06T12:35:03.397Z,99312.97
2022-10-06T12:36:18.256Z,99305.41
2022-10-06T12:37:30.056Z,99310.47
2022-10-06T12:38:43.266Z,99304.50
2022-10-06T12:39:45.894Z,99305.31
2022-10-06T12:40:51.393Z,99307.94
2022-10-06T12:41:58.307Z,99307.75
2022-10-06T12:43:54.078Z,99311.81
2022-10-06T12:44:56.917Z,99302.59
2022-10-06T12:46:13.256Z,99302.59
2022-10-06T12:47:32.733Z,99308.41
2022-10-06T12:48:44.054Z,99296.69
2022-10-06T12:49:47.866Z,99298.13
2022-10-06T12:50:58.244Z,99302.66
2022-10-06T12:52:10.178Z,99300.84
2022-10-06T12:53:20.940Z,99300.00
2022-10-06T12:54:40.120Z,99293.72
2022-10-06T12:55:57.033Z,99289.91
2022-10-06T12:57:18.737Z,99292.94
2022-10-06T12:58:32.765Z,99297.09
2022-10-06T12:59:38.728Z,99295.22
2022-10-06T13:00:43.614Z,99298.91
2022-10-06T13:01:51.839Z,99295.25
2022-10-06T13:02:57.968Z,99295.34
2022-10-06T13:04:00.664Z,99290.63
2022-10-06T13:05:11.619Z,99287.56
2022-10-06T13:06:14.479Z,99288.28
2022-10-06T13:07:22.844Z,99286.13
2022-10-06T13:08:35.832Z,99289.06
2022-10-06T13:09:38.750Z,99290.16
2022-10-06T13:10:41.563Z,99289.94
2022-10-06T13:11:44.261Z,99284.56
2022-10-06T13:12:50.323Z,99285.91
2022-10-06T13:14:14.216Z,99283.75
2022-10-06T13:15:28.046Z,99286.00
2022-10-06T13:16:39.507Z,99278.34
2022-10-06T13:17:44.016Z,99291.50
2022-10-06T13:18:48.047Z,99292.22
2022-10-06T13:19:51.983Z,99285.19
2022-10-06T13:20:59.205Z,99284.37
2022-10-06T13:22:03.216Z,99290.78
2022-10-06T13:23:11.817Z,99283.22
2022-10-06T13:24:20.762Z,99277.09
2022-10-06T13:25:23.582Z,99285.03
2022-10-06T13:26:34.890Z,99282.69
2022-10-06T13:27:40.330Z,99278.25